Latest Weather Observations for Gannett Cay

IDQ60801

Issued at 6:35 pm EST Wednesday 20 August 2014 (issued every 30 minutes, with the page automatically refreshed every 10 minutes)

About weather observations | Map of weather stations | Latest weather observations for QLD | Other Formats
Station Details ID: 200831 Name: GANNET CAY Lat: -21.98 Lon: 152.47 Height: 2.3 m
Data from the previous 72 hours. | See also: Recent months for locations in Queensland
Date/Time
EST
Temp
°C
App
Temp
°C
Dew
Point
Rel
Hum
%
Delta-T
°C
Wind Press
QNH
hPa
Press
MSL
hPa
Rain
since 9 am
mm
Dir
 
Spd
km/h
Gust
km/h
Spd
kts
Gust
kts
20/06:30pm 20.0 - - - - SSE 20 24 11 13 1018.8 - -
20/06:26pm 19.9 - - - - SSE 20 20 11 11 1018.8 1018.9 -
20/06:00pm 19.9 - - - - SSE 20 26 11 14 1018.2 - -
20/05:30pm 20.1 - - - - SSE 19 20 10 11 1018.0 - -
20/05:26pm 20.0 - - - - SSE 19 - 10 - - 1018.0 -
20/05:00pm 20.0 - - - - SSE 22 26 12 14 1017.6 - -
20/04:30pm 20.2 - - - - S 24 28 13 15 1016.8 - -
20/04:26pm 20.1 - - - - S 22 - 12 - - 1016.8 -
20/04:00pm 20.5 - - - - S 26 30 14 16 1016.5 - -
20/03:30pm 20.5 - - - - S 28 32 15 17 1016.0 - -
20/03:26pm 20.6 - - - - S 28 - 15 - - 1016.1 -
20/03:00pm 20.6 - - - - S 26 30 14 16 1016.1 - -
20/02:30pm 20.7 - - - - S 22 28 12 15 1015.9 - -
20/02:26pm 20.8 - - - - S 22 - 12 - - 1016.1 -
20/02:00pm 21.1 - - - - S 20 26 11 14 1016.2 - -
20/01:30pm 21.2 - - - - SSE 19 24 10 13 1016.2 - -
20/01:26pm 21.2 - - - - SSE 19 - 10 - - 1016.4 -
20/01:00pm 21.3 - - - - SSE 20 24 11 13 1016.6 - -
20/12:30pm 21.6 - - - - SSE 19 24 10 13 1017.1 - -
20/12:26pm 21.5 - - - - SSE 19 - 10 - - 1017.2 -
20/12:00pm 21.4 - - - - SSE 19 20 10 11 1017.3 - -
20/11:30am 21.1 - - - - SSE 20 26 11 14 1017.6 - -
20/11:26am 21.2 - - - - SSE 20 - 11 - - 1017.8 -
20/11:00am 21.5 - - - - SSE 19 28 10 15 1018.2 - -
20/10:30am 21.6 - - - - SSE 19 24 10 13 1018.5 - -
20/10:26am 21.5 - - - - SSE 20 - 11 - - 1018.7 -
20/10:00am 21.4 - - - - SSE 22 26 12 14 1018.4 - -
20/09:30am 21.3 - - - - SSE 20 26 11 14 1018.4 - -
20/09:26am 21.2 - - - - SSE 20 - 11 - - 1018.5 -
20/09:00am 21.1 - - - - SSE 24 30 13 16 1018.4 - -
20/08:30am 20.8 - - - - S 24 30 13 16 1018.1 - -
20/08:26am 20.9 - - - - SSE 24 - 13 - - 1018.1 -
20/08:00am 21.2 - - - - SSE 24 32 13 17 1017.9 - -
20/07:30am 20.8 - - - - S 26 33 14 18 1017.6 - -
20/07:26am 20.8 - - - - S 28 - 15 - - 1017.7 -
20/07:00am 20.8 - - - - S 28 32 15 17 1017.4 - -
20/06:30am 20.8 - - - - S 26 32 14 17 1017.4 - -
20/06:26am 20.8 - - - - S 26 - 14 - - 1017.4 -
20/06:00am 20.6 - - - - S 22 30 12 16 1017.3 - -
20/05:30am 20.8 - - - - S 24 32 13 17 1017.0 - -
20/05:26am 20.8 - - - - S 20 32 11 17 1016.9 1017.0 -
20/05:00am 20.8 - - - - SSE 22 30 12 16 1016.8 - -
20/04:30am 19.8 - - - - W 11 15 6 8 1016.8 - -
20/04:26am 19.7 - - - - W 11 - 6 - - 1016.9 -
20/04:00am 19.7 - - - - W 13 17 7 9 1016.7 - -
20/03:30am 19.6 - - - - WSW 13 17 7 9 1016.6 - -
20/03:26am 19.5 - - - - WSW 15 - 8 - - 1016.7 -
20/02:30am 19.7 - - - - SW 13 19 7 10 1016.8 - -
20/02:26am 19.6 - - - - SW 15 - 8 - - 1017.0 -
20/02:00am 19.8 - - - - SW 15 19 8 10 1016.9 - -
20/01:30am 19.8 - - - - SSW 17 22 9 12 1016.9 - -
20/01:26am 19.9 - - - - SSW 17 - 9 - - 1017.0 -
20/01:00am 19.8 - - - - SSW 19 24 10 13 1016.8 - -
20/12:30am 19.8 - - - - SW 17 20 9 11 1016.8 - -
20/12:26am 19.7 - - - - SW 19 - 10 - - 1016.9 -
20/12:00am 19.7 - - - - SW 17 20 9 11 1016.9 - -
 
Date/Time
EST
Temp
°C
App
Temp
°C
Dew
Point
Rel
Hum
%
Delta-T
°C
Wind Press
QNH
hPa
Press
MSL
hPa
Rain
since 9 am
mm
Dir
 
Spd
km/h
Gust
km/h
Spd
kts
Gust
kts
19/11:30pm 19.7 - - - - SW 15 17 8 9 1017.0 - -
19/11:26pm 19.6 - - - - SW 15 - 8 - - 1017.1 -
19/11:00pm 19.6 - - - - WSW 17 19 9 10 1017.0 - -
19/10:30pm 19.6 - - - - WSW 15 19 8 10 1017.1 - -
19/10:26pm 19.6 - - - - WSW 17 - 9 - - 1017.3 -
19/10:00pm 19.6 - - - - WSW 15 17 8 9 1017.2 - -
19/09:30pm 19.5 - - - - WSW 11 15 6 8 1017.1 - -
19/09:26pm 19.5 - - - - WSW 13 - 7 - - 1017.2 -
19/09:00pm 19.6 - - - - WSW 11 13 6 7 1017.3 - -
19/08:30pm 19.3 - - - - W 7 11 4 6 1017.1 - -
19/08:26pm 19.4 - - - - W 7 - 4 - - 1017.2 -
19/08:00pm 19.4 - - - - WSW 11 13 6 7 1017.0 - -
19/07:30pm 19.4 - - - - WSW 11 15 6 8 1016.6 - -
19/07:26pm 19.3 - - - - WSW 9 - 5 - - 1016.7 -
19/07:00pm 19.3 - - - - WSW 11 13 6 7 1016.3 - -
19/06:30pm 19.2 - - - - SW 15 17 8 9 1015.8 - -
19/06:26pm 19.2 - - - - SW 15 - 8 - - 1015.8 -
19/06:00pm 19.1 - - - - SW 15 20 8 11 1015.4 - -
19/05:30pm 19.3 - - - - SW 17 20 9 11 1015.2 - -
19/05:26pm 19.3 - - - - SW 15 - 8 - - 1015.2 -
19/05:00pm 19.4 - - - - SSW 17 19 9 10 1014.8 - -
19/04:30pm 19.4 - - - - SW 17 20 9 11 1014.7 - -
19/04:26pm 19.3 - - - - SSW 17 - 9 - - 1014.8 -
19/04:00pm 19.4 - - - - SSW 19 22 10 12 1014.7 - -
19/03:30pm 19.5 - - - - SSW 20 24 11 13 1014.5 - -
19/03:26pm 19.3 - - - - SSW 20 - 11 - - 1014.6 -
19/03:00pm 19.8 - - - - SSW 20 24 11 13 1014.5 - -
19/02:30pm 19.5 - - - - SSW 22 28 12 15 1014.5 - -
19/02:26pm 19.5 - - - - SSW 22 - 12 - - 1014.6 -
19/02:00pm 19.6 - - - - SSW 20 24 11 13 1014.6 - -
19/01:30pm 19.7 - - - - S 22 28 12 15 1014.8 - -
19/01:26pm 19.8 - - - - S 22 - 12 - - 1015.0 -
19/01:00pm 19.9 - - - - S 26 30 14 16 1015.2 - -
19/12:30pm 20.0 - - - - S 24 30 13 16 1015.6 - -
19/12:26pm 20.1 - - - - S 24 - 13 - - 1015.7 -
19/12:00pm 20.3 - - - - S 26 32 14 17 1015.9 - -
19/11:30am 20.7 - - - - S 22 35 12 19 1016.3 - -
19/11:26am 20.8 - - - - S 22 - 12 - - 1016.5 -
19/11:00am 21.0 - - - - S 19 22 10 12 1016.8 - -
19/10:30am 21.3 - - - - S 15 19 8 10 1017.1 - -
19/10:26am 21.2 - - - - SSW 15 - 8 - - 1017.3 -
19/10:00am 21.1 - - - - SSW 17 20 9 11 1017.4 - -
19/09:30am 20.9 - - - - SSW 19 20 10 11 1017.5 - -
19/09:26am 21.0 - - - - SSW 19 - 10 - - 1017.5 -
19/09:00am 20.9 - - - - SSW 20 26 11 14 1017.4 - -
19/08:30am 20.9 - - - - SW 24 28 13 15 1017.3 - -
19/08:26am 21.0 - - - - SW 22 - 12 - - 1017.3 -
19/08:00am 20.9 - - - - SW 24 28 13 15 1017.0 - -
19/07:30am 21.1 - - - - WSW 24 28 13 15 1016.9 - -
19/07:26am 21.0 - - - - WSW 20 - 11 - - 1017.0 -
19/07:00am 21.0 - - - - WSW 22 26 12 14 1016.6 - -
19/06:30am 21.0 - - - - WSW 26 30 14 16 1016.3 - -
19/06:26am 21.0 - - - - WSW 26 - 14 - - 1016.3 -
19/06:00am 20.9 - - - - WSW 24 28 13 15 1016.0 - -
19/05:30am 20.8 - - - - W 24 28 13 15 1015.7 - -
19/05:26am 20.8 - - - - W 22 - 12 - - 1015.7 -
19/05:00am 20.7 - - - - W 22 26 12 14 1015.5 - -
19/04:30am 20.6 - - - - W 20 24 11 13 1015.3 - -
19/04:26am 20.5 - - - - W 20 - 11 - - 1015.4 -
19/04:00am 20.3 - - - - WNW 19 24 10 13 1015.4 - -
19/03:30am 20.2 - - - - W 19 24 10 13 1015.5 - -
19/03:26am 20.2 - - - - W 19 - 10 - - 1015.6 -
19/02:30am 20.2 - - - - W 17 20 9 11 1015.6 - -
19/02:26am 20.1 - - - - W 17 - 9 - - 1015.7 -
19/02:00am 20.0 - - - - W 19 20 10 11 1015.6 - -
19/01:30am 20.0 - - - - WNW 17 22 9 12 1015.7 - -
19/01:26am 20.0 - - - - W 17 - 9 - - 1015.8 -
19/01:00am 19.9 - - - - WNW 17 20 9 11 1015.8 - -
19/12:30am 19.7 - - - - WNW 15 20 8 11 1016.0 - -
19/12:26am 19.8 - - - - WNW 15 - 8 - - 1016.0 -
19/12:00am 19.7 - - - - WNW 17 20 9 11 1015.9 - -
 
Date/Time
EST
Temp
°C
App
Temp
°C
Dew
Point
Rel
Hum
%
Delta-T
°C
Wind Press
QNH
hPa
Press
MSL
hPa
Rain
since 9 am
mm
Dir
 
Spd
km/h
Gust
km/h
Spd
kts
Gust
kts
18/11:30pm 19.7 - - - - WNW 17 20 9 11 1016.1 - -
18/11:26pm 19.6 - - - - WNW 17 - 9 - - 1016.2 -
18/11:00pm 19.6 - - - - WNW 17 22 9 12 1016.1 - -
18/10:30pm 19.5 - - - - NW 19 22 10 12 1016.0 - -
18/10:26pm 19.4 - - - - NW 19 - 10 - - 1016.0 -
18/10:00pm 19.5 - - - - NW 17 22 9 12 1015.9 - -
18/09:30pm 19.5 - - - - NW 17 22 9 12 1016.0 - -
18/09:26pm 19.4 - - - - NW 17 - 9 - - 1016.2 -
18/09:00pm 19.3 - - - - WNW 19 22 10 12 1016.0 - -
18/08:30pm 19.4 - - - - WNW 19 22 10 12 1015.9 - -
18/08:26pm 19.3 - - - - WNW 19 - 10 - - 1015.9 -
18/08:00pm 19.3 - - - - NW 17 20 9 11 1015.5 - -
18/07:30pm 19.2 - - - - NW 15 20 8 11 1015.4 - -
18/07:26pm 19.2 - - - - NW 15 - 8 - - 1015.4 -
18/07:00pm 19.1 - - - - WNW 13 19 7 10 1014.9 - -
18/06:30pm 19.0 - - - - WNW 13 17 7 9 1014.5 - -
18/06:26pm 19.0 - - - - WNW 13 - 7 - - 1014.5 -
18/06:00pm 18.9 - - - - WNW 15 19 8 10 1014.0 - -
18/05:30pm 19.1 - - - - W 13 17 7 9 1013.8 - -
18/05:26pm 19.2 - - - - W 11 - 6 - - 1013.9 -
18/05:00pm 19.3 - - - - WSW 13 17 7 9 1013.6 - -
18/04:30pm 19.3 - - - - WSW 17 20 9 11 1013.6 - -
18/04:26pm 19.3 - - - - WSW 17 - 9 - - 1013.7 -
18/04:00pm 19.3 - - - - WSW 20 24 11 13 1013.5 - -
18/03:30pm 19.3 - - - - WSW 22 28 12 15 1013.4 - -
18/03:26pm 19.3 - - - - WSW 22 - 12 - - 1013.5 -
18/03:00pm 19.2 - - - - WSW 20 26 11 14 1013.4 - -
18/02:30pm 19.4 - - - - WSW 22 28 12 15 1013.5 - -
18/02:26pm 19.3 - - - - WSW 22 - 12 - - 1013.6 -
18/02:00pm 19.2 - - - - SW 24 30 13 16 1013.6 - -
18/01:30pm 19.5 - - - - SW 26 32 14 17 1013.7 - -
18/01:26pm 19.4 - - - - SW 26 - 14 - - 1013.9 -
18/01:00pm 19.4 - - - - SW 26 33 14 18 1014.0 - -
18/12:30pm 19.3 - - - - SW 26 32 14 17 1014.5 - -
18/12:26pm 19.4 - - - - WSW 26 - 14 - - 1014.7 -
18/12:00pm 19.3 - - - - SW 26 33 14 18 1014.9 - -
18/11:30am 19.6 - - - - SW 24 30 13 16 1015.3 - -
18/11:26am 19.4 - - - - SW 22 - 12 - - 1015.5 -
18/11:00am 19.7 - - - - SW 24 33 13 18 1015.7 - -
18/10:30am 19.5 - - - - SSW 26 32 14 17 1016.0 - -
18/10:26am 19.5 - - - - SW 28 - 15 - - 1016.2 -
18/10:00am 19.7 - - - - SW 28 32 15 17 1016.3 - -
18/09:30am 19.9 - - - - SW 28 32 15 17 1016.3 - -
18/09:26am 19.9 - - - - SW 28 - 15 - - 1016.4 -
18/09:00am 20.0 - - - - SW 32 37 17 20 1016.1 - -
18/08:30am 20.1 - - - - SW 32 37 17 20 1016.0 - -
18/08:26am 20.0 - - - - SW 30 - 16 - - 1016.1 -
18/08:00am 20.1 - - - - SW 30 37 16 20 1015.7 - -
18/07:30am 20.3 - - - - SW 32 37 17 20 1015.6 - -
18/07:26am 20.2 - - - - SW 33 - 18 - - 1015.7 -
18/07:00am 20.4 - - - - SW 35 41 19 22 1015.3 - -
18/06:30am 20.7 - - - - WSW 33 39 18 21 1014.9 - -
18/06:26am 20.7 - - - - WSW 33 - 18 - - 1015.0 -
18/06:00am 20.9 - - - - WSW 33 37 18 20 1014.6 - -
18/05:30am 20.9 - - - - WSW 33 39 18 21 1014.4 - -
18/05:26am 21.0 - - - - WSW 33 - 18 - - 1014.4 -
18/05:00am 21.1 - - - - WSW 33 41 18 22 1014.0 - -
18/04:30am 20.9 - - - - WSW 33 43 18 23 1013.7 - -
18/04:26am 21.0 - - - - WSW 33 - 18 - - 1013.8 -
18/04:00am 20.9 - - - - W 32 35 17 19 1013.7 - -
18/03:30am 20.9 - - - - W 32 37 17 20 1013.6 - -
18/03:26am 20.8 - - - - W 30 - 16 - - 1013.7 -
18/02:30am 21.0 - - - - W 24 28 13 15 1013.6 - -
18/02:26am 21.0 - - - - W 24 - 13 - - 1013.7 -
18/02:00am 21.1 - - - - W 20 24 11 13 1013.6 - -
18/01:30am 21.0 - - - - W 20 24 11 13 1013.9 - -
18/01:26am 21.0 - - - - W 20 - 11 - - 1014.0 -
18/01:00am 20.8 - - - - W 17 20 9 11 1014.0 - -
18/12:30am 20.5 - - - - W 17 20 9 11 1014.2 - -
18/12:26am 20.6 - - - - W 19 - 10 - - 1014.2 -
18/12:00am 20.4 - - - - WSW 19 22 10 12 1014.3 - -
 
Date/Time
EST
Temp
°C
App
Temp
°C
Dew
Point
Rel
Hum
%
Delta-T
°C
Wind Press
QNH
hPa
Press
MSL
hPa
Rain
since 9 am
mm
Dir
 
Spd
km/h
Gust
km/h
Spd
kts
Gust
kts
17/11:30pm 20.2 - - - - WSW 19 22 10 12 1014.3 - -
17/11:26pm 20.2 - - - - WSW 19 - 10 - - 1014.4 -
17/11:00pm 20.2 - - - - WSW 26 28 14 15 1014.3 - -
17/10:30pm 20.1 - - - - WSW 20 24 11 13 1014.4 - -
17/10:26pm 20.1 - - - - WSW 20 - 11 - - 1014.5 -
17/10:00pm 20.2 - - - - SW 20 26 11 14 1014.3 - -
17/09:30pm 20.2 - - - - SW 20 24 11 13 1014.3 - -
17/09:26pm 20.2 - - - - SW 20 - 11 - - 1014.4 -
17/09:00pm 20.3 - - - - SW 19 22 10 12 1014.2 - -
17/08:30pm 20.4 - - - - WSW 19 22 10 12 1014.0 - -
17/08:26pm 20.3 - - - - WSW 20 - 11 - - 1014.1 -
17/08:00pm 20.3 - - - - WSW 17 20 9 11 1013.7 - -
17/07:30pm 20.3 - - - - WSW 17 19 9 10 1013.3 - -
17/07:26pm 20.3 - - - - WSW 17 - 9 - - 1013.3 -
17/07:00pm 20.3 - - - - WSW 19 22 10 12 1012.9 - -

Other Formats:

Comma delimited format used in spreadsheet applications
http://www.bom.gov.au/fwo/IDQ60801/IDQ60801.94379.axf

JavaScript Object Notation format (JSON) in row-major order
http://www.bom.gov.au/fwo/IDQ60801/IDQ60801.94379.json